Aérodrome :
LOGIN :

S'inscrire | Disclaimer

   EN    FR    IT 

 










Légende :    VFR   VFR Marginal   IFR   IFR Intensif   IFR Très Intensif
Visi : 
Plafond : 
>= 8 km
>= 3000ft
5 à 8 km
1000 à 3000 ft
1500m à 5 km
500 à 1000 ft
800 à 1500m
200 à 500 ft
< 800m
< 200 ft
Symboles :   Orages  Brouillard  Fortes neiges  Fortes précipitations  Vent > 20 kt
SIGMETs :   Divers  Orages  Givrage  Turbulence  Onde Orograph.  Cendres Volcan.






- Altitude de l'aérodrome : 396 ft


LFOZ - Orléans St Denis

DERNIER METAR :
  • 141300Z AUTO 23012KT 200V260 9999 FEW043 SCT049 BKN060 22/12 Q1008

METARs EXPIRÉS :
  • 141230Z AUTO 25008KT 220V290 9999 BKN046 OVC054 21/12 Q1008
  • 141200Z AUTO 26008KT 200V300 9999 BKN042 BKN048 BKN056 20/13 Q1008
  • 141130Z AUTO 26009KT 230V310 9999 SCT035 BKN042 BKN050 20/12 Q1008
  • 141100Z AUTO 24010KT 210V280 9999 SCT035 BKN045 BKN054 21/13 Q1009
  • 141030Z AUTO 25010KT 230V290 9999 SCT032 SCT039 BKN048 18/12 Q1009
  • 141000Z AUTO 25010KT 220V280 9999 FEW028 SCT035 BKN043 19/12 Q1009
  • 140930Z AUTO 26010KT 230V290 9999 FEW027 BKN036 BKN043 18/13 Q1009
  • 140900Z AUTO 26007KT 220V290 9999 SCT025 BKN036 BKN043 17/13 Q1009
  • 140830Z AUTO 26010KT 230V290 9999 BKN022 BKN028 OVC045 17/13 Q1009

TAF N/A



MET'MAP, la Météo Aéronautique d'un coup d'oeil ! - Copyright ORBIFLY Décembre 2007 - Disclaimer

ORBIFLY MET'MAP TEAM :

Programmation & Développement : Alexandra Zaïnal
Sur une idée originale de : Baudouin d'Aumeries
Soutien technique & logistique : Manuel Goepfert
Assistance : Marc-Olivier Méhu




SOURCES & CREDITS :

   NOAA